Madera, Pennsylvania
Current Conditions -  °F | °C
As of 4:54 AM on Thursday 23 Oct 2014 (Local Time) from KFIG Reporting Station
Overcast Overcast  
Wind Chill:   Ceiling: 1900
Heat Index:   Visibility: 10mi
Dew Point:   Wind: 13mph
Humidity: 76%   Direction: 350°N
Pressure: 30.03"   Gusts: 20mph
Location:  40.83°N, 78.43°W
Report Text: KFIG 230854Z AUTO 35011G17KT 10SM OVC019 08/04 A3003 RMK AO2 SLP173 T00780039 57004
Loading
Personal Weather Stations






























Interactive Weather Map
Tropical Storm Tracking
New forecast layout! Learn more

10-Day Weather Forecast

Advertisements
Track Severe Weather on mobile